createdAt,value
2022-11-26T00:00:47.122Z,15.10
2022-11-26T00:05:52.731Z,14.13
2022-11-26T00:10:57.425Z,11.53
2022-11-26T00:16:00.406Z,11.47
2022-11-26T00:21:03.352Z,9.83
2022-11-26T00:26:15.721Z,10.00
2022-11-26T00:31:19.239Z,10.50
2022-11-26T00:36:31.581Z,10.83
2022-11-26T00:41:38.943Z,10.33
2022-11-26T00:46:41.820Z,9.67
2022-11-26T00:51:45.583Z,11.73
2022-11-26T00:56:51.144Z,13.20
2022-11-26T01:01:54.131Z,12.20
2022-11-26T01:06:57.127Z,11.60
2022-11-26T01:12:01.405Z,12.23
2022-11-26T01:17:04.366Z,10.10
2022-11-26T01:22:07.290Z,11.20
2022-11-26T01:27:13.552Z,10.60
2022-11-26T01:32:16.648Z,11.83
2022-11-26T01:37:19.553Z,12.20
2022-11-26T01:42:35.642Z,12.63
2022-11-26T01:47:38.748Z,12.83
2022-11-26T01:52:41.818Z,12.53
2022-11-26T01:57:47.027Z,16.30
2022-11-26T02:02:50.405Z,11.40
2022-11-26T02:07:54.401Z,10.60
2022-11-26T02:12:58.850Z,10.93
2022-11-26T02:18:07.399Z,10.10
2022-11-26T02:23:45.442Z,10.50
2022-11-26T02:29:04.436Z,11.03
2022-11-26T02:34:16.234Z,10.53
2022-11-26T02:39:21.209Z,10.33
2022-11-26T02:44:26.663Z,10.77
2022-11-26T02:49:34.064Z,10.93
2022-11-26T02:54:39.399Z,12.00
2022-11-26T02:59:43.449Z,12.20
2022-11-26T03:04:53.733Z,11.07
2022-11-26T03:09:59.035Z,11.70
2022-11-26T03:15:01.991Z,12.70
2022-11-26T03:20:08.075Z,12.40
2022-11-26T03:25:11.554Z,12.03
2022-11-26T03:30:15.352Z,11.97
2022-11-26T03:35:19.912Z,12.50
2022-11-26T03:40:22.782Z,13.37
2022-11-26T03:45:25.699Z,10.60
2022-11-26T03:50:29.953Z,10.93
2022-11-26T03:55:32.874Z,11.40
2022-11-26T04:00:35.793Z,12.40
2022-11-26T04:05:40.022Z,11.60
2022-11-26T04:10:42.973Z,10.70
2022-11-26T04:15:45.920Z,10.80
2022-11-26T04:20:53.290Z,11.07
2022-11-26T04:25:56.411Z,12.23
2022-11-26T04:30:59.420Z,12.17
2022-11-26T04:36:03.810Z,11.90
2022-11-26T04:41:07.621Z,13.63
2022-11-26T04:46:10.704Z,13.07
2022-11-26T04:51:15.038Z,12.50
2022-11-26T04:56:17.968Z,12.47
2022-11-26T05:01:21.120Z,13.13
2022-11-26T05:06:25.444Z,14.37
2022-11-26T05:11:28.387Z,13.07
2022-11-26T05:16:31.673Z,13.53
2022-11-26T05:21:36.001Z,11.73
2022-11-26T05:26:38.908Z,11.70
2022-11-26T05:31:41.952Z,13.47
2022-11-26T05:36:46.315Z,13.20
2022-11-26T05:41:49.294Z,13.63
2022-11-26T05:46:52.235Z,11.70
2022-11-26T05:51:56.540Z,12.20
2022-11-26T05:57:00.386Z,12.07
2022-11-26T06:02:03.684Z,13.57
2022-11-26T06:07:08.138Z,13.90
2022-11-26T06:12:11.134Z,13.57
2022-11-26T06:17:14.094Z,14.17
2022-11-26T06:22:18.368Z,14.77
2022-11-26T06:27:21.465Z,14.23
2022-11-26T06:32:24.357Z,15.87
2022-11-26T06:37:28.652Z,14.67
2022-11-26T06:42:31.615Z,14.63
2022-11-26T06:47:34.487Z,11.20
2022-11-26T06:52:38.866Z,13.20
2022-11-26T06:57:41.778Z,11.40
2022-11-26T07:02:44.931Z,11.90
2022-11-26T07:07:49.304Z,12.13
2022-11-26T07:12:52.245Z,11.10
2022-11-26T07:17:55.225Z,11.93
2022-11-26T07:22:59.506Z,11.93
2022-11-26T07:28:02.370Z,12.00
2022-11-26T07:33:05.378Z,13.03
2022-11-26T07:38:09.620Z,11.17
2022-11-26T07:43:12.549Z,11.50
2022-11-26T07:48:16.999Z,11.10
2022-11-26T07:53:21.609Z,10.30
2022-11-26T07:58:24.569Z,10.97
2022-11-26T08:03:27.428Z,9.47
2022-11-26T08:08:31.761Z,9.87
2022-11-26T08:13:34.673Z,9.53
2022-11-26T08:18:37.751Z,9.57
2022-11-26T08:23:41.999Z,8.57
2022-11-26T08:28:47.478Z,9.50
2022-11-26T08:33:50.377Z,9.40
2022-11-26T08:38:54.637Z,7.87
2022-11-26T08:44:06.559Z,8.90
2022-11-26T08:49:14.889Z,8.70
2022-11-26T08:54:19.214Z,8.47
2022-11-26T08:59:24.218Z,10.03
2022-11-26T09:04:27.179Z,8.03
2022-11-26T09:09:31.723Z,8.97
2022-11-26T09:14:38.441Z,7.10
2022-11-26T09:19:41.643Z,7.40
2022-11-26T09:24:45.893Z,7.33
2022-11-26T09:29:48.747Z,7.40
2022-11-26T09:34:52.612Z,6.67
2022-11-26T09:39:56.927Z,7.13
2022-11-26T09:45:10.043Z,6.50
2022-11-26T09:50:26.644Z,5.70
2022-11-26T09:55:32.980Z,6.00
2022-11-26T10:00:41.069Z,5.93
2022-11-26T10:05:48.855Z,5.40
2022-11-26T10:11:02.498Z,6.67
2022-11-26T10:16:14.547Z,5.83
2022-11-26T10:21:32.324Z,6.67
2022-11-26T10:26:40.882Z,5.83
2022-11-26T10:31:46.282Z,5.90
2022-11-26T10:36:49.975Z,5.07
2022-11-26T10:41:54.315Z,4.70
2022-11-26T10:46:58.503Z,5.57
2022-11-26T10:52:03.490Z,5.70
2022-11-26T10:57:15.220Z,4.77
2022-11-26T11:02:33.931Z,5.53
2022-11-26T11:07:44.074Z,4.60
2022-11-26T11:12:50.982Z,4.40
2022-11-26T11:18:02.571Z,4.50
2022-11-26T11:23:19.048Z,4.27
2022-11-26T11:28:27.511Z,4.60
2022-11-26T11:33:31.114Z,5.40
2022-11-26T11:38:46.742Z,5.07
2022-11-26T11:43:51.205Z,4.43
2022-11-26T11:49:17.417Z,3.73
2022-11-26T11:54:24.334Z,4.57
2022-11-26T12:00:10.695Z,4.10
2022-11-26T12:05:40.037Z,4.80
2022-11-26T12:10:52.588Z,4.77
2022-11-26T12:16:02.083Z,4.93
2022-11-26T12:21:10.958Z,4.90
2022-11-26T12:26:20.138Z,5.40
2022-11-26T12:31:32.205Z,5.83
2022-11-26T12:36:44.373Z,5.60
2022-11-26T12:41:53.713Z,6.30
2022-11-26T12:47:10.568Z,6.30
2022-11-26T12:52:29.814Z,6.50
2022-11-26T12:57:37.469Z,6.73
2022-11-26T13:02:44.774Z,5.57
2022-11-26T13:08:07.031Z,5.17
2022-11-26T13:13:18.522Z,5.13
2022-11-26T13:18:32.633Z,4.80
2022-11-26T13:23:50.958Z,5.00
2022-11-26T13:29:17.608Z,5.27
2022-11-26T13:34:35.577Z,4.67
2022-11-26T13:40:04.805Z,4.70
2022-11-26T13:45:37.004Z,5.63
2022-11-26T13:50:46.411Z,5.70
2022-11-26T13:55:53.428Z,4.70
2022-11-26T14:00:56.568Z,4.97
2022-11-26T14:06:10.497Z,5.30
2022-11-26T14:11:34.295Z,5.30
2022-11-26T14:17:12.622Z,4.83
2022-11-26T14:22:30.278Z,4.50
2022-11-26T14:27:34.458Z,5.13
2022-11-26T14:32:40.831Z,5.70
2022-11-26T14:37:52.550Z,5.67
2022-11-26T14:43:10.150Z,4.30
2022-11-26T14:48:23.890Z,4.60
2022-11-26T14:53:31.850Z,4.73
2022-11-26T14:58:37.822Z,4.80
2022-11-26T15:03:40.787Z,4.47
2022-11-26T15:08:45.637Z,4.37
2022-11-26T15:13:49.529Z,4.40
2022-11-26T15:18:55.285Z,4.27
2022-11-26T15:24:03.988Z,4.83
2022-11-26T15:29:29.302Z,5.13
2022-11-26T15:34:34.049Z,5.43
2022-11-26T15:39:38.292Z,6.50
2022-11-26T15:44:42.892Z,7.70
2022-11-26T15:49:51.934Z,7.63
2022-11-26T15:55:12.405Z,8.10
2022-11-26T16:00:23.187Z,8.10
2022-11-26T16:05:31.870Z,8.07
2022-11-26T16:10:36.790Z,7.07
2022-11-26T16:15:47.739Z,5.80
2022-11-26T16:20:50.849Z,6.20
2022-11-26T16:26:17.518Z,6.20
2022-11-26T16:31:21.197Z,8.27
2022-11-26T16:36:26.253Z,7.33
2022-11-26T16:41:30.586Z,9.40
2022-11-26T16:46:36.944Z,14.80
2022-11-26T16:51:39.890Z,13.17
2022-11-26T16:56:44.463Z,12.40
2022-11-26T17:01:47.410Z,7.43
2022-11-26T17:06:51.205Z,6.77
2022-11-26T17:11:55.511Z,6.90
2022-11-26T17:16:58.501Z,7.60
2022-11-26T17:22:01.407Z,6.83
2022-11-26T17:27:07.568Z,7.60
2022-11-26T17:32:12.863Z,7.30
2022-11-26T17:37:19.860Z,7.70
2022-11-26T17:42:25.038Z,8.33
2022-11-26T17:47:28.360Z,9.50
2022-11-26T17:52:31.378Z,8.40
2022-11-26T17:57:36.052Z,11.23
2022-11-26T18:02:38.976Z,10.10
2022-11-26T18:07:42.305Z,9.13
2022-11-26T18:12:46.607Z,9.80
2022-11-26T18:17:51.511Z,10.20
2022-11-26T18:22:56.667Z,9.27
2022-11-26T18:28:00.906Z,9.53
2022-11-26T18:33:03.849Z,14.03
2022-11-26T18:38:20.625Z,12.07
2022-11-26T18:43:24.917Z,11.90
2022-11-26T18:48:27.935Z,11.80
2022-11-26T18:53:31.021Z,9.27
2022-11-26T18:58:35.274Z,17.43
2022-11-26T19:03:42.566Z,12.23
2022-11-26T19:08:48.060Z,9.37
2022-11-26T19:13:52.431Z,9.47
2022-11-26T19:18:55.296Z,11.07
2022-11-26T19:24:00.316Z,18.60
2022-11-26T19:29:06.029Z,9.10
2022-11-26T19:34:13.623Z,8.87
2022-11-26T19:39:17.277Z,9.97
2022-11-26T19:44:21.688Z,8.20
2022-11-26T19:49:24.605Z,9.10
2022-11-26T19:54:27.790Z,7.33
2022-11-26T19:59:32.404Z,8.30
2022-11-26T20:04:35.321Z,10.57
2022-11-26T20:09:38.545Z,10.37
2022-11-26T20:14:43.008Z,9.63
2022-11-26T20:19:46.772Z,8.73
2022-11-26T20:24:49.657Z,9.90
2022-11-26T20:29:53.904Z,13.87
2022-11-26T20:34:57.981Z,9.17
2022-11-26T20:40:00.874Z,7.73
2022-11-26T20:45:05.796Z,13.23
2022-11-26T20:50:10.747Z,15.90
2022-11-26T20:55:13.782Z,15.00
2022-11-26T21:00:22.448Z,14.83
2022-11-26T21:05:29.102Z,15.40
2022-11-26T21:10:32.003Z,14.63
2022-11-26T21:15:36.605Z,24.67
2022-11-26T21:20:40.704Z,23.17
2022-11-26T21:25:44.712Z,25.50
2022-11-26T21:30:48.984Z,16.60
2022-11-26T21:35:51.905Z,15.87
2022-11-26T21:40:54.772Z,13.23
2022-11-26T21:46:03.863Z,13.10
2022-11-26T21:51:08.253Z,10.03
2022-11-26T21:56:14.667Z,10.00
2022-11-26T22:01:20.865Z,11.43
2022-11-26T22:06:24.681Z,10.07
2022-11-26T22:11:29.796Z,10.07
2022-11-26T22:16:34.985Z,10.07
2022-11-26T22:21:40.191Z,11.20
2022-11-26T22:26:44.237Z,11.03
2022-11-26T22:31:50.311Z,11.40
2022-11-26T22:36:53.304Z,11.40
2022-11-26T22:41:56.653Z,12.20
2022-11-26T22:47:00.975Z,10.77
2022-11-26T22:52:03.922Z,10.77
2022-11-26T22:57:06.840Z,10.43
2022-11-26T23:02:11.238Z,10.40
2022-11-26T23:07:14.269Z,11.00
2022-11-26T23:12:17.167Z,9.87
2022-11-26T23:17:21.451Z,10.93
2022-11-26T23:22:24.377Z,9.80
2022-11-26T23:27:27.306Z,9.50
2022-11-26T23:32:32.587Z,9.87
2022-11-26T23:37:36.081Z,9.10
2022-11-26T23:42:38.959Z,8.30
2022-11-26T23:47:43.238Z,8.33
2022-11-26T23:52:46.106Z,9.40
2022-11-26T23:57:49.019Z,8.40
